Historyczne dane pomiarowe

Dodano dane terminowe – wersja testowa.

Dane z okresu 1951-2019

Wersja bazy: 1.34 [2019-03-16, lista zmian], aktualizacja planowana na 2019-04-15

Dane meteo z obszaru Polski uzyskane na podstawie danych udostępnionych przez Instytut Meteorologii i Gospodarki Wodnej – Państwowy Instytut Badawczy.

 

Wybierz Datę:    

       

TemperaturaWilgotnośćWiatrCiśnienieOpadyŚniegCzas trwania zjawisk
 Stacja t tx tn tng RH VA  wxwx mslp ppp RRR   cm mm wxwxwxwxwxwxwx
1983-08-14 12.4 15.9 10.0--- 4.7 2.0---- 0.0------------
1983-08-13 13.0 20.4 11.0--- 8.0 1.3---- 9.6------------
1983-08-12 17.0 21.9 14.9--- 4.3 1.3---- 8.7------------
1983-08-11 15.8 19.3 12.7--- 8.0 2.0---- 5.0------------
1983-08-10 15.7 21.9 12.7--- 6.7 0.7---- 6.2------------
1983-08-09 16.2 22.9 11.6--- 7.0 1.3---- 2.6------------
1983-08-08 16.9 21.1 7.7--- 6.3 0.7---- 0.0------------
1983-08-07 15.2 20.2 12.9--- 7.7 0.7---- 1.8------------
1983-08-06 12.9 18.9 7.8--- 5.3 1.0---- 0.0------------
1983-08-05 11.1 14.9 9.2--- 7.0 0.7---- 0.0------------
1983-08-04 12.4 20.6 11.0--- 8.0 1.0---- 6.6------------
1983-08-03 18.7 24.0 12.8--- 4.7 0.3---- 7.9------------
1983-08-02 19.3 28.4 8.8--- 1.0 0.3---- 0.0------------
1983-08-01 15.6 25.1 5.5--- 0.0 0.3---- 0.0------------
1983-07-31 15.5 20.5 10.8--- 2.0 2.0---- 0.0------------
1983-07-30 15.4 19.8 9.2--- 5.7 1.7---- 1.1------------
1983-07-29 18.0 22.4 10.8--- 2.0 1.0---- 0.2------------
1983-07-28 19.6 26.2 13.9--- 6.0 2.0---- 0.0------------
1983-07-27 19.8 26.4 12.9--- 1.3 1.7---- 0.0------------
1983-07-26 17.8 25.1 12.9--- 6.3 1.7---- 0.0------------
1983-07-25 13.9 17.6 10.7--- 6.0 2.7---- 1.8------------
1983-07-24 14.0 16.3 12.3--- 8.0 1.0---- 1.6------------
1983-07-23 13.7 18.7 11.0--- 8.0 2.3---- 8.3------------
1983-07-22 11.1 14.4 5.9--- 7.7 2.0---- 7.0------------
1983-07-21 10.6 14.6 7.7--- 6.3 5.0---- 1.2------------
1983-07-20 17.4 23.6 9.8--- 8.0 1.7---- 8.5------------
1983-07-19 19.8 28.5 10.4--- 1.3 2.0---- 2.2------------
1983-07-18 19.1 25.8 10.6--- 2.0 0.7---- 0.0------------
1983-07-17 18.8 24.7 12.2--- 1.0 1.0---- 0.0------------
1983-07-16 17.2 24.7 8.3--- 2.0 0.0---- 0.0------------
1983-07-15 17.5 22.2 15.1--- 6.0 1.7---- 0.0------------
1983-07-14 16.4 18.7 13.4--- 7.0 1.0---- 24.0------------
1983-07-13 15.7 20.2 12.8--- 6.7 1.0---- 0.6------------
1983-07-12 15.4 20.2 11.6--- 7.0 1.0---- 6.1------------
1983-07-11 15.8 20.8 12.3--- 4.3 2.3---- 7.7------------
1983-07-10 16.2 23.7 10.3--- 4.0 0.0---- 11.6------------
1983-07-09 17.2 24.1 7.7--- 3.0 0.7---- 0.0------------
1983-07-08 16.4 23.4 7.4--- 0.0 1.0---- 0.0------------
1983-07-07 18.2 24.8 8.8--- 0.3 0.3---- 0.0------------
1983-07-06 18.2 24.9 9.3--- 0.0 0.0---- 0.0------------
1983-07-05 17.4 24.6 7.8--- 2.3 0.3---- 0.0------------
1983-07-04 16.4 22.6 7.1--- 2.7 0.3---- 0.0------------
1983-07-03 16.8 21.3 13.9--- 4.3 2.0---- 0.0------------
1983-07-02 15.2 20.6 10.2--- 8.0 0.7---- 13.9------------
1983-07-01 17.1 24.5 8.6--- 4.3 0.3---- 5.7------------
1983-06-30 14.2 21.2 3.2--- 2.0 1.0---- 0.0------------
1983-06-29 13.3 17.2 11.3--- 5.0 1.3---- 0.0------------
1983-06-28 16.3 21.5 14.3--- 7.7 1.7---- 7.4------------
1983-06-27 19.3 24.6 9.1--- 2.7 3.7---- 1.1------------
1983-06-26 18.6 21.7 12.3--- 6.0 1.3---- 4.6------------
1983-06-25 20.3 24.0 12.9--- 0.3 2.7---- 0.0------------
1983-06-24 15.3 23.6 4.2--- 0.7 1.3---- 0.0------------
1983-06-23 12.8 19.7 2.0--- 0.3 1.7---- 0.0------------
1983-06-22 13.9 19.6 10.8--- 1.0 3.7---- 0.0------------
1983-06-21 17.3 22.6 13.1--- 4.7 1.0---- 0.0------------
1983-06-20 16.4 19.7 13.7--- 6.7 1.0---- 0.1------------
1983-06-19 15.4 20.2 10.3--- 6.3 0.7---- 4.5------------
1983-06-18 10.7 12.4 9.3--- 8.0 4.3---- 24.0------------
1983-06-17 10.0 11.7 8.8--- 8.0 3.0---- 8.2------------
1983-06-16 10.6 14.6 9.2--- 8.0 3.7---- 23.5------------
414.5 ms

 

Źródłem pochodzenia danych jest Instytut Meteorologii i Gospodarki Wodnej – Państwowy Instytut Badawczy. Dane Instytutu Meteorologii i Gospodarki Wodnej – Państwowego Instytutu Badawczego zostały przetworzone.

Dane źródłowe można odnaleźć na stronie https://dane.imgw.pl